sensor_id;sensor_type;location;lat;lon;timestamp;P1;durP1;ratioP1;P2;durP2;ratioP2
10052;SDS011;52418;53.134;8.236;2022-10-04T00:01:59;1.20;;;1.20;;
10052;SDS011;52418;53.134;8.236;2022-10-04T00:06:53;1.20;;;1.20;;
10052;SDS011;52418;53.134;8.236;2022-10-04T00:09:21;1.20;;;1.20;;
10052;SDS011;52418;53.134;8.236;2022-10-04T00:11:47;1.30;;;1.30;;
10052;SDS011;52418;53.134;8.236;2022-10-04T00:14:14;1.30;;;1.30;;
10052;SDS011;52418;53.134;8.236;2022-10-04T00:16:40;1.10;;;1.10;;
10052;SDS011;52418;53.134;8.236;2022-10-04T00:24:21;1.10;;;1.10;;
10052;SDS011;52418;53.134;8.236;2022-10-04T00:37:02;1.20;;;1.20;;
10052;SDS011;52418;53.134;8.236;2022-10-04T00:42:04;1.20;;;1.20;;
10052;SDS011;52418;53.134;8.236;2022-10-04T00:44:44;1.20;;;1.20;;
10052;SDS011;52418;53.134;8.236;2022-10-04T00:47:23;1.20;;;1.20;;
10052;SDS011;52418;53.134;8.236;2022-10-04T00:49:52;1.20;;;1.20;;
10052;SDS011;52418;53.134;8.236;2022-10-04T00:52:28;1.20;;;1.20;;
10052;SDS011;52418;53.134;8.236;2022-10-04T00:54:57;1.47;;;1.37;;
10052;SDS011;52418;53.134;8.236;2022-10-04T00:58:24;1.30;;;1.30;;
10052;SDS011;52418;53.134;8.236;2022-10-04T01:00:18;1.20;;;1.20;;
10052;SDS011;52418;53.134;8.236;2022-10-04T01:05:16;1.10;;;1.10;;
10052;SDS011;52418;53.134;8.236;2022-10-04T01:07:53;1.20;;;1.20;;
10052;SDS011;52418;53.134;8.236;2022-10-04T01:10:26;1.20;;;1.20;;
10052;SDS011;52418;53.134;8.236;2022-10-04T01:12:54;1.20;;;1.20;;
10052;SDS011;52418;53.134;8.236;2022-10-04T01:15:23;1.20;;;1.20;;
10052;SDS011;52418;53.134;8.236;2022-10-04T01:18:13;1.20;;;1.20;;
10052;SDS011;52418;53.134;8.236;2022-10-04T01:26:02;1.20;;;1.20;;
10052;SDS011;52418;53.134;8.236;2022-10-04T01:28:27;1.27;;;1.27;;
10052;SDS011;52418;53.134;8.236;2022-10-04T01:30:53;1.20;;;1.20;;
10052;SDS011;52418;53.134;8.236;2022-10-04T01:33:18;1.30;;;1.30;;
10052;SDS011;52418;53.134;8.236;2022-10-04T01:35:44;1.10;;;1.10;;
10052;SDS011;52418;53.134;8.236;2022-10-04T01:38:09;1.20;;;1.20;;
10052;SDS011;52418;53.134;8.236;2022-10-04T01:40:35;1.20;;;1.20;;
10052;SDS011;52418;53.134;8.236;2022-10-04T01:43:04;1.30;;;1.30;;
10052;SDS011;52418;53.134;8.236;2022-10-04T01:47:59;1.20;;;1.20;;
10052;SDS011;52418;53.134;8.236;2022-10-04T01:52:50;1.10;;;1.10;;
10052;SDS011;52418;53.134;8.236;2022-10-04T01:55:20;1.20;;;1.20;;
10052;SDS011;52418;53.134;8.236;2022-10-04T01:57:49;1.23;;;1.23;;
10052;SDS011;52418;53.134;8.236;2022-10-04T02:00:17;1.20;;;1.20;;
10052;SDS011;52418;53.134;8.236;2022-10-04T02:02:59;1.20;;;1.20;;
10052;SDS011;52418;53.134;8.236;2022-10-04T02:05:27;1.27;;;1.27;;
10052;SDS011;52418;53.134;8.236;2022-10-04T02:07:54;1.20;;;1.20;;
10052;SDS011;52418;53.134;8.236;2022-10-04T02:10:19;1.20;;;1.20;;
10052;SDS011;52418;53.134;8.236;2022-10-04T02:12:46;1.20;;;1.20;;
10052;SDS011;52418;53.134;8.236;2022-10-04T02:15:12;1.10;;;1.10;;
10052;SDS011;52418;53.134;8.236;2022-10-04T02:17:38;1.20;;;1.20;;
10052;SDS011;52418;53.134;8.236;2022-10-04T02:20:14;1.20;;;1.20;;
10052;SDS011;52418;53.134;8.236;2022-10-04T02:22:40;1.00;;;1.00;;
10052;SDS011;52418;53.134;8.236;2022-10-04T02:25:07;1.10;;;1.10;;
10052;SDS011;52418;53.134;8.236;2022-10-04T02:27:33;1.10;;;1.10;;
10052;SDS011;52418;53.134;8.236;2022-10-04T02:29:59;1.20;;;1.20;;
10052;SDS011;52418;53.134;8.236;2022-10-04T02:32:24;1.10;;;1.10;;
10052;SDS011;52418;53.134;8.236;2022-10-04T02:35:08;1.20;;;1.20;;
10052;SDS011;52418;53.134;8.236;2022-10-04T02:37:33;1.20;;;1.20;;
10052;SDS011;52418;53.134;8.236;2022-10-04T02:40:07;1.33;;;1.33;;
10052;SDS011;52418;53.134;8.236;2022-10-04T02:45:12;1.20;;;1.20;;
10052;SDS011;52418;53.134;8.236;2022-10-04T02:47:44;1.23;;;1.23;;
10052;SDS011;52418;53.134;8.236;2022-10-04T02:52:46;1.20;;;1.20;;
10052;SDS011;52418;53.134;8.236;2022-10-04T02:55:16;1.20;;;1.20;;
10052;SDS011;52418;53.134;8.236;2022-10-04T02:57:43;1.20;;;1.20;;
10052;SDS011;52418;53.134;8.236;2022-10-04T03:00:12;1.30;;;1.30;;
10052;SDS011;52418;53.134;8.236;2022-10-04T03:02:37;1.20;;;1.20;;
10052;SDS011;52418;53.134;8.236;2022-10-04T03:05:04;1.10;;;1.10;;
10052;SDS011;52418;53.134;8.236;2022-10-04T03:07:31;1.20;;;1.20;;
10052;SDS011;52418;53.134;8.236;2022-10-04T03:09:57;1.20;;;1.20;;
10052;SDS011;52418;53.134;8.236;2022-10-04T03:12:24;1.30;;;1.30;;
10052;SDS011;52418;53.134;8.236;2022-10-04T03:14:50;1.10;;;1.10;;
10052;SDS011;52418;53.134;8.236;2022-10-04T03:17:16;1.10;;;1.10;;
10052;SDS011;52418;53.134;8.236;2022-10-04T03:19:41;1.13;;;1.13;;
10052;SDS011;52418;53.134;8.236;2022-10-04T03:22:08;1.27;;;1.27;;
10052;SDS011;52418;53.134;8.236;2022-10-04T03:24:36;1.20;;;1.20;;
10052;SDS011;52418;53.134;8.236;2022-10-04T03:27:04;1.13;;;1.13;;
10052;SDS011;52418;53.134;8.236;2022-10-04T03:29:31;1.20;;;1.20;;
10052;SDS011;52418;53.134;8.236;2022-10-04T03:31:58;1.20;;;1.20;;
10052;SDS011;52418;53.134;8.236;2022-10-04T03:34:25;1.20;;;1.20;;
10052;SDS011;52418;53.134;8.236;2022-10-04T03:36:52;1.20;;;1.20;;
10052;SDS011;52418;53.134;8.236;2022-10-04T03:39:25;1.20;;;1.20;;
10052;SDS011;52418;53.134;8.236;2022-10-04T03:41:51;1.20;;;1.20;;
10052;SDS011;52418;53.134;8.236;2022-10-04T03:44:17;1.20;;;1.20;;
10052;SDS011;52418;53.134;8.236;2022-10-04T03:46:43;1.20;;;1.20;;
10052;SDS011;52418;53.134;8.236;2022-10-04T03:49:10;1.20;;;1.20;;
10052;SDS011;52418;53.134;8.236;2022-10-04T03:51:36;1.10;;;1.10;;
10052;SDS011;52418;53.134;8.236;2022-10-04T03:54:02;1.10;;;1.10;;
10052;SDS011;52418;53.134;8.236;2022-10-04T03:56:28;1.20;;;1.20;;
10052;SDS011;52418;53.134;8.236;2022-10-04T03:58:55;1.10;;;1.10;;
10052;SDS011;52418;53.134;8.236;2022-10-04T04:06:40;1.30;;;1.30;;
10052;SDS011;52418;53.134;8.236;2022-10-04T04:09:07;1.30;;;1.30;;
10052;SDS011;52418;53.134;8.236;2022-10-04T04:11:32;1.20;;;1.20;;
10052;SDS011;52418;53.134;8.236;2022-10-04T04:16:24;1.20;;;1.20;;
10052;SDS011;52418;53.134;8.236;2022-10-04T04:18:53;1.20;;;1.20;;
10052;SDS011;52418;53.134;8.236;2022-10-04T04:21:19;1.20;;;1.20;;
10052;SDS011;52418;53.134;8.236;2022-10-04T04:23:52;1.10;;;1.10;;
10052;SDS011;52418;53.134;8.236;2022-10-04T04:26:32;1.10;;;1.10;;
10052;SDS011;52418;53.134;8.236;2022-10-04T04:29:11;1.30;;;1.30;;
10052;SDS011;52418;53.134;8.236;2022-10-04T04:34:24;1.30;;;1.30;;
10052;SDS011;52418;53.134;8.236;2022-10-04T04:36:55;1.30;;;1.30;;
10052;SDS011;52418;53.134;8.236;2022-10-04T04:39:23;1.30;;;1.30;;
10052;SDS011;52418;53.134;8.236;2022-10-04T04:44:34;1.17;;;1.17;;
10052;SDS011;52418;53.134;8.236;2022-10-04T04:47:00;1.30;;;1.30;;
10052;SDS011;52418;53.134;8.236;2022-10-04T04:49:29;1.30;;;1.30;;
10052;SDS011;52418;53.134;8.236;2022-10-04T04:51:55;1.20;;;1.20;;
10052;SDS011;52418;53.134;8.236;2022-10-04T04:54:22;1.50;;;1.40;;
10052;SDS011;52418;53.134;8.236;2022-10-04T04:56:49;1.53;;;1.43;;
10052;SDS011;52418;53.134;8.236;2022-10-04T04:59:15;1.50;;;1.40;;
10052;SDS011;52418;53.134;8.236;2022-10-04T05:01:41;1.30;;;1.30;;
10052;SDS011;52418;53.134;8.236;2022-10-04T05:06:33;1.30;;;1.30;;
10052;SDS011;52418;53.134;8.236;2022-10-04T05:08:58;1.30;;;1.30;;
10052;SDS011;52418;53.134;8.236;2022-10-04T05:11:25;1.50;;;1.40;;
10052;SDS011;52418;53.134;8.236;2022-10-04T05:13:52;1.30;;;1.30;;
10052;SDS011;52418;53.134;8.236;2022-10-04T05:16:20;1.30;;;1.30;;
10052;SDS011;52418;53.134;8.236;2022-10-04T05:18:47;1.43;;;1.40;;
10052;SDS011;52418;53.134;8.236;2022-10-04T05:21:21;1.50;;;1.40;;
10052;SDS011;52418;53.134;8.236;2022-10-04T05:23:47;1.50;;;1.40;;
10052;SDS011;52418;53.134;8.236;2022-10-04T05:26:12;1.30;;;1.30;;
10052;SDS011;52418;53.134;8.236;2022-10-04T05:28:38;1.20;;;1.20;;
10052;SDS011;52418;53.134;8.236;2022-10-04T05:33:51;1.30;;;1.30;;
10052;SDS011;52418;53.134;8.236;2022-10-04T05:41:37;1.50;;;1.40;;
10052;SDS011;52418;53.134;8.236;2022-10-04T05:46:53;1.20;;;1.20;;
10052;SDS011;52418;53.134;8.236;2022-10-04T05:49:19;1.20;;;1.20;;
10052;SDS011;52418;53.134;8.236;2022-10-04T05:51:58;1.20;;;1.20;;
10052;SDS011;52418;53.134;8.236;2022-10-04T05:54:28;1.10;;;1.10;;
10052;SDS011;52418;53.134;8.236;2022-10-04T06:02:39;1.10;;;1.10;;
10052;SDS011;52418;53.134;8.236;2022-10-04T06:05:18;1.20;;;1.20;;
10052;SDS011;52418;53.134;8.236;2022-10-04T06:21:26;1.10;;;1.10;;
10052;SDS011;52418;53.134;8.236;2022-10-04T06:26:21;1.10;;;1.10;;
10052;SDS011;52418;53.134;8.236;2022-10-04T06:28:55;1.10;;;1.10;;
10052;SDS011;52418;53.134;8.236;2022-10-04T06:36:26;1.00;;;1.00;;
10052;SDS011;52418;53.134;8.236;2022-10-04T06:44:29;1.03;;;1.03;;
10052;SDS011;52418;53.134;8.236;2022-10-04T06:47:00;1.13;;;1.13;;
10052;SDS011;52418;53.134;8.236;2022-10-04T06:49:38;1.20;;;1.20;;
10052;SDS011;52418;53.134;8.236;2022-10-04T06:52:12;1.20;;;1.20;;
10052;SDS011;52418;53.134;8.236;2022-10-04T06:54:46;1.20;;;1.20;;
10052;SDS011;52418;53.134;8.236;2022-10-04T06:59:40;1.10;;;1.10;;
10052;SDS011;52418;53.134;8.236;2022-10-04T07:04:40;1.10;;;1.10;;
10052;SDS011;52418;53.134;8.236;2022-10-04T07:09:53;1.30;;;1.30;;
10052;SDS011;52418;53.134;8.236;2022-10-04T07:12:20;1.10;;;1.10;;
10052;SDS011;52418;53.134;8.236;2022-10-04T07:14:46;1.20;;;1.20;;
10052;SDS011;52418;53.134;8.236;2022-10-04T07:17:16;1.20;;;1.20;;
10052;SDS011;52418;53.134;8.236;2022-10-04T07:27:46;1.10;;;1.10;;
10052;SDS011;52418;53.134;8.236;2022-10-04T07:30:14;1.20;;;1.20;;
10052;SDS011;52418;53.134;8.236;2022-10-04T07:32:46;1.20;;;1.20;;
10052;SDS011;52418;53.134;8.236;2022-10-04T07:38:03;1.10;;;1.10;;
10052;SDS011;52418;53.134;8.236;2022-10-04T07:40:37;1.10;;;1.10;;
10052;SDS011;52418;53.134;8.236;2022-10-04T07:43:04;1.20;;;1.20;;
10052;SDS011;52418;53.134;8.236;2022-10-04T07:45:31;1.10;;;1.10;;
10052;SDS011;52418;53.134;8.236;2022-10-04T07:50:46;1.10;;;1.10;;
10052;SDS011;52418;53.134;8.236;2022-10-04T07:53:15;1.17;;;1.17;;
10052;SDS011;52418;53.134;8.236;2022-10-04T07:55:59;1.20;;;1.20;;
10052;SDS011;52418;53.134;8.236;2022-10-04T07:58:38;1.17;;;1.17;;
10052;SDS011;52418;53.134;8.236;2022-10-04T08:06:36;1.20;;;1.20;;
10052;SDS011;52418;53.134;8.236;2022-10-04T08:09:07;1.10;;;1.10;;
10052;SDS011;52418;53.134;8.236;2022-10-04T08:11:53;1.10;;;1.10;;
10052;SDS011;52418;53.134;8.236;2022-10-04T08:14:33;1.10;;;1.10;;
10052;SDS011;52418;53.134;8.236;2022-10-04T08:17:06;1.20;;;1.20;;
10052;SDS011;52418;53.134;8.236;2022-10-04T08:24:41;1.13;;;1.13;;
10052;SDS011;52418;53.134;8.236;2022-10-04T08:27:21;1.10;;;1.10;;
10052;SDS011;52418;53.134;8.236;2022-10-04T08:40:43;1.10;;;1.10;;
10052;SDS011;52418;53.134;8.236;2022-10-04T08:53:18;1.10;;;1.10;;
10052;SDS011;52418;53.134;8.236;2022-10-04T08:58:44;1.17;;;1.17;;
10052;SDS011;52418;53.134;8.236;2022-10-04T09:17:00;1.10;;;1.10;;
10052;SDS011;52418;53.134;8.236;2022-10-04T09:19:46;1.10;;;1.10;;
10052;SDS011;52418;53.134;8.236;2022-10-04T09:22:15;1.00;;;1.00;;
10052;SDS011;52418;53.134;8.236;2022-10-04T09:24:52;1.00;;;1.00;;
10052;SDS011;52418;53.134;8.236;2022-10-04T09:27:37;1.07;;;1.07;;
10052;SDS011;52418;53.134;8.236;2022-10-04T09:33:00;1.10;;;1.10;;
10052;SDS011;52418;53.134;8.236;2022-10-04T09:46:38;1.00;;;1.00;;
10052;SDS011;52418;53.134;8.236;2022-10-04T10:09:56;1.20;;;1.20;;
10052;SDS011;52418;53.134;8.236;2022-10-04T10:20:48;1.23;;;1.23;;
10052;SDS011;52418;53.134;8.236;2022-10-04T10:26:08;1.10;;;1.10;;
10052;SDS011;52418;53.134;8.236;2022-10-04T10:31:10;1.10;;;1.10;;
10052;SDS011;52418;53.134;8.236;2022-10-04T10:33:44;1.10;;;1.10;;
10052;SDS011;52418;53.134;8.236;2022-10-04T10:47:25;1.08;;;1.08;;
10052;SDS011;52418;53.134;8.236;2022-10-04T10:55:27;1.05;;;1.05;;
10052;SDS011;52418;53.134;8.236;2022-10-04T11:00:21;1.10;;;1.10;;
10052;SDS011;52418;53.134;8.236;2022-10-04T11:02:57;1.20;;;1.20;;
10052;SDS011;52418;53.134;8.236;2022-10-04T11:08:33;1.30;;;1.30;;
10052;SDS011;52418;53.134;8.236;2022-10-04T11:13:38;1.20;;;1.20;;
10052;SDS011;52418;53.134;8.236;2022-10-04T11:26:56;1.20;;;1.20;;
10052;SDS011;52418;53.134;8.236;2022-10-04T11:29:39;1.20;;;1.20;;
10052;SDS011;52418;53.134;8.236;2022-10-04T11:40:16;1.10;;;1.10;;
10052;SDS011;52418;53.134;8.236;2022-10-04T11:42:56;1.20;;;1.20;;
10052;SDS011;52418;53.134;8.236;2022-10-04T11:45:32;1.20;;;1.20;;
10052;SDS011;52418;53.134;8.236;2022-10-04T11:50:35;1.20;;;1.20;;
10052;SDS011;52418;53.134;8.236;2022-10-04T11:55:34;1.17;;;1.17;;
10052;SDS011;52418;53.134;8.236;2022-10-04T11:58:14;1.20;;;1.20;;
10052;SDS011;52418;53.134;8.236;2022-10-04T12:21:27;1.20;;;1.20;;
10052;SDS011;52418;53.134;8.236;2022-10-04T12:26:53;1.17;;;1.17;;
10052;SDS011;52418;53.134;8.236;2022-10-04T12:32:33;1.20;;;1.20;;
10052;SDS011;52418;53.134;8.236;2022-10-04T12:40:32;1.30;;;1.30;;
10052;SDS011;52418;53.134;8.236;2022-10-04T12:43:04;1.20;;;1.20;;
10052;SDS011;52418;53.134;8.236;2022-10-04T12:48:30;1.20;;;1.20;;
10052;SDS011;52418;53.134;8.236;2022-10-04T12:51:04;1.20;;;1.20;;
10052;SDS011;52418;53.134;8.236;2022-10-04T13:04:01;1.10;;;1.10;;
10052;SDS011;52418;53.134;8.236;2022-10-04T13:06:36;1.10;;;1.10;;
10052;SDS011;52418;53.134;8.236;2022-10-04T13:17:14;1.20;;;1.20;;
10052;SDS011;52418;53.134;8.236;2022-10-04T13:19:45;1.10;;;1.10;;
10052;SDS011;52418;53.134;8.236;2022-10-04T13:22:49;1.20;;;1.20;;
10052;SDS011;52418;53.134;8.236;2022-10-04T13:30:26;1.20;;;1.20;;
10052;SDS011;52418;53.134;8.236;2022-10-04T13:46:44;1.00;;;1.00;;
10052;SDS011;52418;53.134;8.236;2022-10-04T13:59:48;1.13;;;1.13;;
10052;SDS011;52418;53.134;8.236;2022-10-04T14:15:19;1.30;;;1.30;;
10052;SDS011;52418;53.134;8.236;2022-10-04T14:36:27;1.10;;;1.10;;
10052;SDS011;52418;53.134;8.236;2022-10-04T15:02:55;1.10;;;1.10;;
10052;SDS011;52418;53.134;8.236;2022-10-04T15:08:12;1.10;;;1.10;;
10052;SDS011;52418;53.134;8.236;2022-10-04T15:10:47;1.10;;;1.10;;
10052;SDS011;52418;53.134;8.236;2022-10-04T15:13:19;1.00;;;1.00;;
10052;SDS011;52418;53.134;8.236;2022-10-04T15:20:57;1.02;;;1.02;;
10052;SDS011;52418;53.134;8.236;2022-10-04T15:25:56;0.90;;;0.90;;
10052;SDS011;52418;53.134;8.236;2022-10-04T15:28:31;0.90;;;0.90;;
10052;SDS011;52418;53.134;8.236;2022-10-04T15:33:58;1.00;;;1.00;;
10052;SDS011;52418;53.134;8.236;2022-10-04T15:41:40;0.98;;;0.98;;
10052;SDS011;52418;53.134;8.236;2022-10-04T15:49:16;1.00;;;1.00;;
10052;SDS011;52418;53.134;8.236;2022-10-04T15:56:54;0.90;;;0.90;;
10052;SDS011;52418;53.134;8.236;2022-10-04T16:01:57;1.00;;;1.00;;
10052;SDS011;52418;53.134;8.236;2022-10-04T16:09:38;0.90;;;0.90;;
10052;SDS011;52418;53.134;8.236;2022-10-04T16:22:33;1.00;;;1.00;;
10052;SDS011;52418;53.134;8.236;2022-10-04T16:25:27;1.10;;;1.10;;
10052;SDS011;52418;53.134;8.236;2022-10-04T16:32:45;0.90;;;0.90;;
10052;SDS011;52418;53.134;8.236;2022-10-04T16:38:14;1.00;;;1.00;;
10052;SDS011;52418;53.134;8.236;2022-10-04T16:50:54;1.00;;;1.00;;
10052;SDS011;52418;53.134;8.236;2022-10-04T16:53:27;1.00;;;1.00;;
10052;SDS011;52418;53.134;8.236;2022-10-04T16:55:56;1.00;;;1.00;;
10052;SDS011;52418;53.134;8.236;2022-10-04T17:01:18;1.00;;;1.00;;
10052;SDS011;52418;53.134;8.236;2022-10-04T17:03:36;1.00;;;1.00;;
10052;SDS011;52418;53.134;8.236;2022-10-04T17:06:11;1.00;;;1.00;;
10052;SDS011;52418;53.134;8.236;2022-10-04T17:11:26;1.00;;;1.00;;
10052;SDS011;52418;53.134;8.236;2022-10-04T17:14:28;0.95;;;0.95;;
10052;SDS011;52418;53.134;8.236;2022-10-04T17:16:50;1.00;;;1.00;;
10052;SDS011;52418;53.134;8.236;2022-10-04T17:19:38;1.00;;;1.00;;
10052;SDS011;52418;53.134;8.236;2022-10-04T17:22:12;1.00;;;1.00;;
10052;SDS011;52418;53.134;8.236;2022-10-04T17:30:23;1.00;;;1.00;;
10052;SDS011;52418;53.134;8.236;2022-10-04T17:37:54;1.00;;;1.00;;
10052;SDS011;52418;53.134;8.236;2022-10-04T17:48:14;1.00;;;1.00;;
10052;SDS011;52418;53.134;8.236;2022-10-04T17:51:03;1.00;;;1.00;;
10052;SDS011;52418;53.134;8.236;2022-10-04T17:53:54;0.90;;;0.90;;
10052;SDS011;52418;53.134;8.236;2022-10-04T17:59:25;0.90;;;0.90;;
10052;SDS011;52418;53.134;8.236;2022-10-04T18:02:02;1.00;;;1.00;;
10052;SDS011;52418;53.134;8.236;2022-10-04T18:04:33;1.00;;;1.00;;
10052;SDS011;52418;53.134;8.236;2022-10-04T18:07:00;1.10;;;1.10;;
10052;SDS011;52418;53.134;8.236;2022-10-04T18:12:00;1.00;;;1.00;;
10052;SDS011;52418;53.134;8.236;2022-10-04T18:17:30;1.07;;;1.07;;
10052;SDS011;52418;53.134;8.236;2022-10-04T18:23:02;1.03;;;1.03;;
10052;SDS011;52418;53.134;8.236;2022-10-04T18:25:36;1.10;;;1.10;;
10052;SDS011;52418;53.134;8.236;2022-10-04T18:30:33;1.00;;;1.00;;
10052;SDS011;52418;53.134;8.236;2022-10-04T18:32:58;1.00;;;1.00;;
10052;SDS011;52418;53.134;8.236;2022-10-04T18:40:40;1.00;;;1.00;;
10052;SDS011;52418;53.134;8.236;2022-10-04T18:43:22;0.97;;;0.97;;
10052;SDS011;52418;53.134;8.236;2022-10-04T18:48:42;1.00;;;1.00;;
10052;SDS011;52418;53.134;8.236;2022-10-04T18:53:50;1.00;;;1.00;;
10052;SDS011;52418;53.134;8.236;2022-10-04T18:56:16;1.00;;;1.00;;
10052;SDS011;52418;53.134;8.236;2022-10-04T19:04:23;1.00;;;1.00;;
10052;SDS011;52418;53.134;8.236;2022-10-04T19:06:50;0.93;;;0.93;;
10052;SDS011;52418;53.134;8.236;2022-10-04T19:09:21;1.00;;;1.00;;
10052;SDS011;52418;53.134;8.236;2022-10-04T19:11:51;1.00;;;1.00;;
10052;SDS011;52418;53.134;8.236;2022-10-04T19:27:47;1.00;;;1.00;;
10052;SDS011;52418;53.134;8.236;2022-10-04T19:30:38;1.00;;;1.00;;
10052;SDS011;52418;53.134;8.236;2022-10-04T19:33:08;1.00;;;1.00;;
10052;SDS011;52418;53.134;8.236;2022-10-04T19:38:28;1.00;;;1.00;;
10052;SDS011;52418;53.134;8.236;2022-10-04T19:43:39;1.03;;;1.03;;
10052;SDS011;52418;53.134;8.236;2022-10-04T19:46:09;1.00;;;1.00;;
10052;SDS011;52418;53.134;8.236;2022-10-04T19:48:38;1.17;;;1.17;;
10052;SDS011;52418;53.134;8.236;2022-10-04T19:51:07;1.07;;;1.07;;
10052;SDS011;52418;53.134;8.236;2022-10-04T19:53:40;1.00;;;1.00;;
10052;SDS011;52418;53.134;8.236;2022-10-04T19:56:14;1.10;;;1.10;;
10052;SDS011;52418;53.134;8.236;2022-10-04T19:58:56;1.10;;;1.10;;
10052;SDS011;52418;53.134;8.236;2022-10-04T20:01:30;1.00;;;1.00;;
10052;SDS011;52418;53.134;8.236;2022-10-04T20:03:55;1.00;;;1.00;;
10052;SDS011;52418;53.134;8.236;2022-10-04T20:06:56;1.10;;;1.10;;
10052;SDS011;52418;53.134;8.236;2022-10-04T20:11:55;1.00;;;1.00;;
10052;SDS011;52418;53.134;8.236;2022-10-04T20:21:55;1.00;;;1.00;;
10052;SDS011;52418;53.134;8.236;2022-10-04T20:27:06;0.93;;;0.93;;
10052;SDS011;52418;53.134;8.236;2022-10-04T20:29:56;1.00;;;1.00;;
10052;SDS011;52418;53.134;8.236;2022-10-04T20:33:07;1.03;;;1.03;;
10052;SDS011;52418;53.134;8.236;2022-10-04T20:35:10;1.10;;;1.10;;
10052;SDS011;52418;53.134;8.236;2022-10-04T20:42:45;1.10;;;1.10;;
10052;SDS011;52418;53.134;8.236;2022-10-04T20:45:36;1.17;;;1.17;;
10052;SDS011;52418;53.134;8.236;2022-10-04T20:48:10;1.20;;;1.20;;
10052;SDS011;52418;53.134;8.236;2022-10-04T20:50:37;1.10;;;1.10;;
10052;SDS011;52418;53.134;8.236;2022-10-04T20:53:04;1.20;;;1.20;;
10052;SDS011;52418;53.134;8.236;2022-10-04T20:55:32;1.10;;;1.10;;
10052;SDS011;52418;53.134;8.236;2022-10-04T20:57:58;1.10;;;1.10;;
10052;SDS011;52418;53.134;8.236;2022-10-04T21:00:24;1.10;;;1.10;;
10052;SDS011;52418;53.134;8.236;2022-10-04T21:03:04;0.90;;;0.90;;
10052;SDS011;52418;53.134;8.236;2022-10-04T21:05:30;1.10;;;1.10;;
10052;SDS011;52418;53.134;8.236;2022-10-04T21:08:16;1.00;;;1.00;;
10052;SDS011;52418;53.134;8.236;2022-10-04T21:21:47;1.00;;;1.00;;
10052;SDS011;52418;53.134;8.236;2022-10-04T21:26:56;0.90;;;0.90;;
10052;SDS011;52418;53.134;8.236;2022-10-04T21:29:21;1.03;;;1.03;;
10052;SDS011;52418;53.134;8.236;2022-10-04T21:31:47;0.90;;;0.90;;
10052;SDS011;52418;53.134;8.236;2022-10-04T21:34:12;1.00;;;1.00;;
10052;SDS011;52418;53.134;8.236;2022-10-04T21:36:37;1.10;;;1.10;;
10052;SDS011;52418;53.134;8.236;2022-10-04T21:39:03;1.00;;;1.00;;
10052;SDS011;52418;53.134;8.236;2022-10-04T21:41:28;1.20;;;1.20;;
10052;SDS011;52418;53.134;8.236;2022-10-04T21:43:54;1.10;;;1.10;;
10052;SDS011;52418;53.134;8.236;2022-10-04T21:46:19;1.10;;;1.10;;
10052;SDS011;52418;53.134;8.236;2022-10-04T21:48:44;1.10;;;1.10;;
10052;SDS011;52418;53.134;8.236;2022-10-04T21:51:09;1.20;;;1.20;;
10052;SDS011;52418;53.134;8.236;2022-10-04T21:53:34;1.10;;;1.10;;
10052;SDS011;52418;53.134;8.236;2022-10-04T21:56:00;1.10;;;1.10;;
10052;SDS011;52418;53.134;8.236;2022-10-04T21:58:27;1.00;;;1.00;;
10052;SDS011;52418;53.134;8.236;2022-10-04T22:00:52;1.10;;;1.10;;
10052;SDS011;52418;53.134;8.236;2022-10-04T22:03:22;1.00;;;1.00;;
10052;SDS011;52418;53.134;8.236;2022-10-04T22:05:47;1.00;;;1.00;;
10052;SDS011;52418;53.134;8.236;2022-10-04T22:08:13;1.10;;;1.10;;
10052;SDS011;52418;53.134;8.236;2022-10-04T22:10:38;1.10;;;1.10;;
10052;SDS011;52418;53.134;8.236;2022-10-04T22:13:04;1.00;;;1.00;;
10052;SDS011;52418;53.134;8.236;2022-10-04T22:15:43;1.10;;;1.10;;
10052;SDS011;52418;53.134;8.236;2022-10-04T22:18:08;1.20;;;1.20;;
10052;SDS011;52418;53.134;8.236;2022-10-04T22:20:34;1.10;;;1.10;;
10052;SDS011;52418;53.134;8.236;2022-10-04T22:22:59;1.00;;;1.00;;
10052;SDS011;52418;53.134;8.236;2022-10-04T22:25:25;1.10;;;1.10;;
10052;SDS011;52418;53.134;8.236;2022-10-04T22:27:51;1.03;;;1.03;;
10052;SDS011;52418;53.134;8.236;2022-10-04T22:30:24;1.10;;;1.10;;
10052;SDS011;52418;53.134;8.236;2022-10-04T22:32:50;1.10;;;1.10;;
10052;SDS011;52418;53.134;8.236;2022-10-04T22:35:18;1.17;;;1.17;;
10052;SDS011;52418;53.134;8.236;2022-10-04T22:37:44;1.00;;;1.00;;
10052;SDS011;52418;53.134;8.236;2022-10-04T22:40:14;1.00;;;1.00;;
10052;SDS011;52418;53.134;8.236;2022-10-04T22:42:40;1.10;;;1.10;;
10052;SDS011;52418;53.134;8.236;2022-10-04T22:45:07;1.10;;;1.10;;
10052;SDS011;52418;53.134;8.236;2022-10-04T22:47:33;1.03;;;1.03;;
10052;SDS011;52418;53.134;8.236;2022-10-04T22:53:18;1.17;;;1.17;;
10052;SDS011;52418;53.134;8.236;2022-10-04T22:55:46;1.10;;;1.10;;
10052;SDS011;52418;53.134;8.236;2022-10-04T22:58:12;1.00;;;1.00;;
10052;SDS011;52418;53.134;8.236;2022-10-04T23:00:37;1.10;;;1.10;;
10052;SDS011;52418;53.134;8.236;2022-10-04T23:03:07;1.00;;;1.00;;
10052;SDS011;52418;53.134;8.236;2022-10-04T23:05:36;1.10;;;1.10;;
10052;SDS011;52418;53.134;8.236;2022-10-04T23:08:01;1.10;;;1.10;;
10052;SDS011;52418;53.134;8.236;2022-10-04T23:10:26;1.20;;;1.20;;
10052;SDS011;52418;53.134;8.236;2022-10-04T23:12:51;1.17;;;1.17;;
10052;SDS011;52418;53.134;8.236;2022-10-04T23:15:18;1.17;;;1.17;;
10052;SDS011;52418;53.134;8.236;2022-10-04T23:17:43;1.07;;;1.07;;
10052;SDS011;52418;53.134;8.236;2022-10-04T23:20:12;1.10;;;1.10;;
10052;SDS011;52418;53.134;8.236;2022-10-04T23:22:38;1.10;;;1.10;;
10052;SDS011;52418;53.134;8.236;2022-10-04T23:25:10;1.10;;;1.10;;
10052;SDS011;52418;53.134;8.236;2022-10-04T23:27:36;1.10;;;1.10;;
10052;SDS011;52418;53.134;8.236;2022-10-04T23:30:20;1.10;;;1.10;;
10052;SDS011;52418;53.134;8.236;2022-10-04T23:32:46;1.00;;;1.00;;
10052;SDS011;52418;53.134;8.236;2022-10-04T23:35:19;1.00;;;1.00;;
10052;SDS011;52418;53.134;8.236;2022-10-04T23:37:46;1.10;;;1.10;;
10052;SDS011;52418;53.134;8.236;2022-10-04T23:40:11;1.00;;;1.00;;
10052;SDS011;52418;53.134;8.236;2022-10-04T23:42:38;1.00;;;1.00;;
10052;SDS011;52418;53.134;8.236;2022-10-04T23:45:20;1.10;;;1.10;;
10052;SDS011;52418;53.134;8.236;2022-10-04T23:47:56;1.00;;;1.00;;
10052;SDS011;52418;53.134;8.236;2022-10-04T23:50:29;1.00;;;1.00;;
10052;SDS011;52418;53.134;8.236;2022-10-04T23:52:55;1.10;;;1.10;;
10052;SDS011;52418;53.134;8.236;2022-10-04T23:55:26;1.00;;;1.00;;
10052;SDS011;52418;53.134;8.236;2022-10-04T23:57:52;1.10;;;1.10;;
